createdAt,value
2023-04-18T00:02:17.787Z,84.80
2023-04-18T00:04:46.421Z,85.10
2023-04-18T00:07:17.643Z,84.90
2023-04-18T00:09:44.949Z,85.20
2023-04-18T00:12:12.395Z,84.90
2023-04-18T00:14:40.842Z,84.90
2023-04-18T00:17:08.826Z,84.50
2023-04-18T00:19:43.140Z,84.70
2023-04-18T00:22:11.255Z,84.40
2023-04-18T00:24:38.933Z,85.10
2023-04-18T00:27:06.111Z,85.20
2023-04-18T00:29:33.324Z,85.40
2023-04-18T00:32:00.513Z,85.60
2023-04-18T00:34:31.010Z,85.50
2023-04-18T00:36:58.196Z,85.00
2023-04-18T00:39:25.493Z,85.20
2023-04-18T00:41:53.907Z,85.00
2023-04-18T00:44:21.095Z,85.10
2023-04-18T00:46:48.303Z,85.20
2023-04-18T00:49:15.610Z,85.20
2023-04-18T00:51:43.439Z,85.00
2023-04-18T00:54:13.216Z,85.80
2023-04-18T00:56:40.858Z,85.60
2023-04-18T00:59:09.572Z,85.60
2023-04-18T01:01:37.568Z,85.50
2023-04-18T01:04:08.139Z,85.20
2023-04-18T01:09:05.581Z,85.00
2023-04-18T01:11:32.792Z,84.90
2023-04-18T01:14:05.344Z,84.90
2023-04-18T01:16:37.043Z,85.10
2023-04-18T01:19:05.051Z,85.60
2023-04-18T01:21:37.099Z,85.60
2023-04-18T01:24:16.556Z,85.60
2023-04-18T01:26:47.397Z,85.50
2023-04-18T01:29:14.859Z,85.30
2023-04-18T01:31:42.252Z,85.00
2023-04-18T01:34:09.702Z,85.00
2023-04-18T01:36:38.142Z,85.00
2023-04-18T01:39:05.498Z,84.90
2023-04-18T01:41:33.076Z,85.00
2023-04-18T01:47:49.123Z,85.20
2023-04-18T01:50:16.372Z,85.10
2023-04-18T01:52:43.650Z,84.90
2023-04-18T01:55:11.049Z,85.00
2023-04-18T01:57:38.319Z,85.10
2023-04-18T02:00:06.900Z,85.10
2023-04-18T02:02:43.275Z,85.70
2023-04-18T02:05:10.726Z,85.40
2023-04-18T02:07:40.961Z,85.40
2023-04-18T02:10:09.345Z,85.10
2023-04-18T02:12:36.529Z,85.10
2023-04-18T02:15:04.044Z,84.90
2023-04-18T02:17:31.323Z,84.70
2023-04-18T02:19:58.956Z,85.20
2023-04-18T02:22:26.157Z,85.20
2023-04-18T02:24:53.597Z,85.00
2023-04-18T02:27:20.895Z,85.30
2023-04-18T02:29:48.099Z,85.10
2023-04-18T02:32:15.298Z,84.90
2023-04-18T02:34:44.892Z,84.90
2023-04-18T02:37:12.087Z,84.90
2023-04-18T02:39:40.726Z,85.20
2023-04-18T02:42:07.943Z,85.40
2023-04-18T02:44:35.159Z,85.40
2023-04-18T02:47:02.390Z,85.10
2023-04-18T02:49:30.230Z,85.20
2023-04-18T02:51:58.222Z,84.90
2023-04-18T02:54:25.522Z,84.50
2023-04-18T02:57:04.713Z,84.90
2023-04-18T02:59:50.578Z,84.60
2023-04-18T03:02:36.577Z,84.60
2023-04-18T03:05:17.008Z,84.80
2023-04-18T03:07:44.375Z,84.90
2023-04-18T03:10:11.695Z,84.80
2023-04-18T03:12:39.741Z,84.90
2023-04-18T03:15:07.742Z,84.70
2023-04-18T03:17:36.707Z,84.90
2023-04-18T03:20:06.152Z,84.80
2023-04-18T03:22:33.356Z,84.50
2023-04-18T03:25:00.699Z,84.20
2023-04-18T03:27:48.186Z,84.40
2023-04-18T03:30:18.013Z,84.30
2023-04-18T03:32:52.826Z,84.60
2023-04-18T03:35:20.169Z,85.00
2023-04-18T03:37:47.425Z,84.80
2023-04-18T03:40:22.573Z,85.00
2023-04-18T03:42:52.438Z,84.70
2023-04-18T03:45:20.251Z,84.70
2023-04-18T03:47:48.196Z,84.60
2023-04-18T03:50:16.515Z,84.70
2023-04-18T03:52:45.287Z,84.70
2023-04-18T03:55:13.413Z,84.80
2023-04-18T03:57:41.398Z,85.20
2023-04-18T04:00:12.926Z,85.00
2023-04-18T04:02:56.730Z,85.00
2023-04-18T04:05:24.101Z,85.00
2023-04-18T04:07:51.654Z,85.20
2023-04-18T04:10:19.091Z,85.00
2023-04-18T04:12:47.933Z,85.30
2023-04-18T04:15:15.176Z,85.20
2023-04-18T04:18:01.618Z,84.90
2023-04-18T04:20:29.842Z,84.70
2023-04-18T04:23:04.176Z,84.60
2023-04-18T04:25:34.054Z,84.60
2023-04-18T04:28:06.733Z,84.40
2023-04-18T04:30:41.645Z,84.50
2023-04-18T04:33:09.257Z,84.30
2023-04-18T04:35:36.666Z,84.20
2023-04-18T04:38:04.747Z,83.80
2023-04-18T04:40:43.369Z,84.00
2023-04-18T04:43:15.645Z,83.90
2023-04-18T04:45:44.598Z,83.70
2023-04-18T04:48:12.497Z,83.70
2023-04-18T04:50:41.761Z,83.90
2023-04-18T04:53:12.175Z,83.80
2023-04-18T04:55:39.853Z,84.00
2023-04-18T04:58:08.004Z,84.00
2023-04-18T05:00:53.828Z,84.10
2023-04-18T05:03:22.949Z,84.10
2023-04-18T05:05:50.474Z,84.10
2023-04-18T05:08:17.674Z,84.00
2023-04-18T05:10:45.913Z,83.90
2023-04-18T05:13:13.272Z,83.70
2023-04-18T05:15:40.697Z,83.40
2023-04-18T05:18:08.297Z,83.60
2023-04-18T05:20:35.927Z,83.00
2023-04-18T05:23:03.148Z,82.80
2023-04-18T05:25:31.574Z,82.80
2023-04-18T05:28:00.436Z,83.00
2023-04-18T05:30:27.762Z,83.40
2023-04-18T05:32:55.084Z,83.20
2023-04-18T05:35:22.441Z,83.20
2023-04-18T05:37:49.728Z,83.50
2023-04-18T05:40:19.048Z,83.40
2023-04-18T05:42:47.308Z,83.50
2023-04-18T05:45:18.647Z,83.20
2023-04-18T05:47:45.917Z,82.40
2023-04-18T05:50:13.190Z,82.70
2023-04-18T05:52:40.448Z,82.60
2023-04-18T05:55:08.190Z,82.50
2023-04-18T05:57:35.734Z,82.50
2023-04-18T06:00:11.637Z,82.40
2023-04-18T06:02:41.917Z,81.80
2023-04-18T06:05:09.595Z,82.20
2023-04-18T06:07:36.899Z,82.00
2023-04-18T06:10:22.746Z,81.90
2023-04-18T06:12:50.555Z,82.10
2023-04-18T06:15:18.850Z,81.50
2023-04-18T06:17:46.372Z,80.90
2023-04-18T06:20:13.714Z,79.60
2023-04-18T06:22:42.122Z,79.90
2023-04-18T06:25:10.098Z,79.60
2023-04-18T06:27:38.059Z,78.80
2023-04-18T06:30:07.785Z,78.90
2023-04-18T06:32:35.037Z,79.70
2023-04-18T06:35:02.372Z,79.80
2023-04-18T06:37:29.792Z,79.30
2023-04-18T06:39:59.117Z,79.20
2023-04-18T06:42:26.589Z,79.60
2023-04-18T06:44:54.849Z,78.90
2023-04-18T06:47:22.822Z,78.10
2023-04-18T06:49:50.053Z,79.10
2023-04-18T06:52:17.325Z,79.30
2023-04-18T06:54:46.578Z,78.10
2023-04-18T06:57:14.065Z,78.30
2023-04-18T06:59:43.980Z,76.80
2023-04-18T07:02:11.399Z,76.80
2023-04-18T07:04:38.718Z,78.00
2023-04-18T07:07:06.112Z,77.80
2023-04-18T07:09:33.457Z,77.90
2023-04-18T07:12:00.696Z,77.60
2023-04-18T07:14:28.424Z,76.90
2023-04-18T07:16:57.546Z,78.10
2023-04-18T07:19:24.769Z,78.50
2023-04-18T07:21:51.989Z,77.90
2023-04-18T07:24:19.242Z,77.60
2023-04-18T07:26:46.515Z,77.80
2023-04-18T07:29:13.699Z,75.30
2023-04-18T07:31:40.899Z,76.70
2023-04-18T07:34:09.133Z,75.70
2023-04-18T07:36:36.994Z,75.80
2023-04-18T07:39:04.222Z,74.20
2023-04-18T07:41:31.787Z,74.40
2023-04-18T07:44:00.382Z,74.40
2023-04-18T07:46:27.867Z,74.30
2023-04-18T07:48:55.285Z,74.70
2023-04-18T07:51:26.588Z,75.90
2023-04-18T07:53:53.767Z,76.50
2023-04-18T07:56:21.602Z,76.00
2023-04-18T07:58:48.870Z,74.40
2023-04-18T08:01:18.562Z,73.10
2023-04-18T08:03:47.415Z,73.60
2023-04-18T08:06:15.162Z,73.30
2023-04-18T08:08:42.996Z,73.40
2023-04-18T08:11:10.204Z,74.50
2023-04-18T08:13:37.424Z,73.30
2023-04-18T08:16:05.039Z,72.10
2023-04-18T08:18:32.706Z,71.00
2023-04-18T08:21:00.435Z,70.40
2023-04-18T08:23:27.661Z,70.30
2023-04-18T08:25:54.956Z,69.50
2023-04-18T08:28:22.259Z,70.10
2023-04-18T08:30:50.382Z,68.50
2023-04-18T08:33:18.560Z,71.50
2023-04-18T08:35:46.935Z,70.00
2023-04-18T08:38:14.686Z,70.60
2023-04-18T08:40:43.373Z,70.20
2023-04-18T08:43:14.103Z,69.40
2023-04-18T08:45:42.688Z,68.20
2023-04-18T08:48:17.615Z,68.00
2023-04-18T08:50:45.331Z,67.40
2023-04-18T08:53:12.566Z,67.60
2023-04-18T08:55:40.589Z,66.50
2023-04-18T08:58:07.872Z,66.70
2023-04-18T09:00:37.420Z,66.20
2023-04-18T09:03:05.222Z,67.20
2023-04-18T09:05:32.807Z,65.10
2023-04-18T09:08:21.545Z,63.20
2023-04-18T09:10:50.391Z,65.10
2023-04-18T09:13:38.360Z,63.10
2023-04-18T09:16:07.919Z,63.40
2023-04-18T09:18:35.199Z,64.50
2023-04-18T09:21:19.740Z,63.10
2023-04-18T09:23:50.344Z,64.70
2023-04-18T09:26:34.024Z,62.30
2023-04-18T09:29:01.385Z,62.80
2023-04-18T09:31:30.358Z,65.30
2023-04-18T09:33:57.876Z,63.30
2023-04-18T09:36:31.094Z,65.00
2023-04-18T09:38:58.423Z,63.80
2023-04-18T09:41:25.817Z,63.30
2023-04-18T09:44:14.376Z,63.80
2023-04-18T09:46:47.133Z,63.40
2023-04-18T09:49:16.061Z,64.20
2023-04-18T09:51:44.620Z,64.50
2023-04-18T09:54:16.047Z,64.50
2023-04-18T09:56:50.861Z,65.40
2023-04-18T09:59:37.418Z,63.80
2023-04-18T10:02:10.137Z,63.70
2023-04-18T10:04:37.788Z,62.30
2023-04-18T10:07:05.231Z,62.00
2023-04-18T10:09:34.311Z,58.70
2023-04-18T10:12:02.618Z,60.60
2023-04-18T10:14:32.934Z,57.00
2023-04-18T10:17:01.039Z,56.40
2023-04-18T10:19:29.951Z,58.50
2023-04-18T10:22:00.990Z,55.90
2023-04-18T10:24:53.055Z,54.30
2023-04-18T10:27:49.464Z,60.60
2023-04-18T10:30:17.168Z,61.50
2023-04-18T10:32:48.667Z,58.90
2023-04-18T10:35:15.967Z,58.00
2023-04-18T10:37:50.642Z,56.80
2023-04-18T10:40:33.017Z,56.50
2023-04-18T10:43:00.390Z,56.80
2023-04-18T10:45:29.674Z,57.70
2023-04-18T10:48:29.462Z,58.20
2023-04-18T10:51:14.214Z,57.00
2023-04-18T10:54:02.508Z,55.40
2023-04-18T10:56:29.995Z,54.00
2023-04-18T10:59:03.034Z,55.80
2023-04-18T11:01:33.045Z,57.10
2023-04-18T11:04:01.408Z,56.70
2023-04-18T11:06:30.284Z,55.30
2023-04-18T11:09:13.840Z,54.40
2023-04-18T11:11:41.852Z,54.00
2023-04-18T11:14:09.130Z,53.50
2023-04-18T11:16:37.092Z,58.00
2023-04-18T11:19:30.639Z,54.90
2023-04-18T11:22:01.276Z,53.10
2023-04-18T11:24:29.412Z,54.20
2023-04-18T11:26:56.911Z,56.50
2023-04-18T11:29:24.158Z,57.60
2023-04-18T11:31:55.784Z,59.30
2023-04-18T11:34:31.618Z,59.30
2023-04-18T11:37:00.988Z,60.50
2023-04-18T11:39:28.443Z,60.90
2023-04-18T11:41:57.134Z,60.20
2023-04-18T11:44:25.095Z,60.30
2023-04-18T11:46:53.480Z,59.10
2023-04-18T11:49:31.972Z,60.80
2023-04-18T11:51:59.877Z,61.50
2023-04-18T11:54:44.330Z,62.50
2023-04-18T11:57:23.298Z,62.20
2023-04-18T11:59:57.578Z,61.90
2023-04-18T12:02:41.527Z,63.20
2023-04-18T12:05:10.440Z,63.80
2023-04-18T12:07:47.888Z,63.80
2023-04-18T12:10:29.783Z,62.70
2023-04-18T12:12:58.792Z,63.20
2023-04-18T12:15:29.535Z,64.50
2023-04-18T12:18:02.155Z,65.70
2023-04-18T12:20:46.218Z,64.10
2023-04-18T12:23:37.156Z,64.30
2023-04-18T12:26:11.777Z,63.30
2023-04-18T12:28:39.055Z,64.30
2023-04-18T12:31:07.305Z,64.30
2023-04-18T12:33:36.631Z,63.60
2023-04-18T12:36:08.627Z,63.90
2023-04-18T12:38:36.389Z,64.20
2023-04-18T12:41:03.814Z,65.40
2023-04-18T12:43:31.584Z,63.80
2023-04-18T12:45:59.491Z,64.00
2023-04-18T12:48:26.753Z,63.60
2023-04-18T12:50:54.239Z,63.20
2023-04-18T12:53:26.116Z,62.50
2023-04-18T12:55:54.061Z,63.10
2023-04-18T12:58:21.591Z,61.90
2023-04-18T13:00:48.863Z,62.60
2023-04-18T13:03:16.454Z,62.00
2023-04-18T13:05:43.894Z,62.90
2023-04-18T13:08:16.855Z,62.90
2023-04-18T13:10:45.607Z,63.30
2023-04-18T13:13:13.355Z,62.40
2023-04-18T13:15:41.118Z,64.50
2023-04-18T13:18:08.467Z,63.50
2023-04-18T13:20:37.046Z,62.90
2023-04-18T13:23:04.558Z,63.00
2023-04-18T13:25:31.880Z,61.80
2023-04-18T13:28:00.703Z,63.40
2023-04-18T13:30:28.263Z,61.70
2023-04-18T13:32:55.590Z,62.20
2023-04-18T13:35:22.853Z,63.20
2023-04-18T13:37:50.050Z,62.90
2023-04-18T13:40:17.314Z,62.60
2023-04-18T13:42:44.502Z,64.20
2023-04-18T13:45:11.838Z,64.10
2023-04-18T13:47:39.417Z,65.00
2023-04-18T13:50:09.372Z,63.30
2023-04-18T13:52:36.609Z,64.10
2023-04-18T13:55:04.113Z,62.30
2023-04-18T13:57:34.760Z,62.90
2023-04-18T14:00:01.972Z,62.60
2023-04-18T14:02:39.401Z,61.10
2023-04-18T14:05:07.307Z,60.80
2023-04-18T14:07:35.344Z,62.40
2023-04-18T14:10:04.364Z,62.80
2023-04-18T14:12:31.649Z,63.20
2023-04-18T14:14:59.812Z,63.50
2023-04-18T14:17:43.292Z,62.70
2023-04-18T14:20:12.114Z,62.00
2023-04-18T14:22:39.308Z,59.90
2023-04-18T14:25:08.362Z,58.70
2023-04-18T14:27:35.925Z,57.80
2023-04-18T14:30:06.412Z,57.50
2023-04-18T14:32:33.873Z,57.80
2023-04-18T14:35:04.952Z,57.30
2023-04-18T14:37:40.395Z,57.60
2023-04-18T14:40:09.959Z,59.00
2023-04-18T14:42:40.548Z,60.70
2023-04-18T14:45:13.629Z,62.10
2023-04-18T14:47:41.860Z,62.00
2023-04-18T14:50:11.907Z,63.80
2023-04-18T14:52:40.088Z,65.00
2023-04-18T14:55:09.178Z,65.00
2023-04-18T14:57:42.756Z,65.50
2023-04-18T15:00:11.199Z,66.60
2023-04-18T15:02:39.488Z,66.50
2023-04-18T15:05:58.856Z,65.50
2023-04-18T15:08:26.216Z,67.50
2023-04-18T15:11:46.075Z,67.30
2023-04-18T15:14:16.773Z,67.80
2023-04-18T15:16:44.645Z,68.80
2023-04-18T15:19:11.974Z,67.90
2023-04-18T15:21:39.260Z,68.40
2023-04-18T15:24:06.960Z,68.30
2023-04-18T15:26:36.592Z,68.40
2023-04-18T15:29:04.067Z,68.20
2023-04-18T15:31:31.360Z,68.40
2023-04-18T15:33:58.607Z,68.90
2023-04-18T15:36:26.043Z,67.70
2023-04-18T15:38:53.291Z,67.50
2023-04-18T15:41:21.491Z,67.80
2023-04-18T15:43:48.884Z,67.60
2023-04-18T15:46:16.235Z,67.50
2023-04-18T15:48:43.527Z,67.70
2023-04-18T15:51:10.843Z,67.90
2023-04-18T15:53:38.191Z,68.10
2023-04-18T15:56:06.297Z,68.30
2023-04-18T15:58:34.599Z,68.50
2023-04-18T16:01:02.769Z,68.70
2023-04-18T16:03:30.189Z,69.30
2023-04-18T16:05:58.628Z,69.60
2023-04-18T16:08:25.954Z,68.60
2023-04-18T16:10:53.314Z,68.90
2023-04-18T16:13:20.550Z,68.90
2023-04-18T16:15:48.114Z,68.50
2023-04-18T16:18:15.338Z,68.80
2023-04-18T16:20:42.560Z,69.00
2023-04-18T16:24:12.603Z,68.80
2023-04-18T16:26:39.976Z,68.90
2023-04-18T16:29:07.175Z,69.70
2023-04-18T16:31:34.694Z,69.70
2023-04-18T16:34:03.288Z,69.40
2023-04-18T16:36:34.678Z,69.30
2023-04-18T16:39:02.010Z,69.60
2023-04-18T16:41:29.258Z,69.80
2023-04-18T16:43:57.168Z,70.10
2023-04-18T16:46:24.530Z,70.60
2023-04-18T16:48:52.599Z,70.20
2023-04-18T16:51:20.074Z,69.50
2023-04-18T16:53:47.466Z,69.30
2023-04-18T16:56:15.107Z,69.30
2023-04-18T16:58:44.380Z,70.00
2023-04-18T17:01:11.708Z,70.40
2023-04-18T17:03:39.090Z,70.40
2023-04-18T17:06:06.925Z,70.70
2023-04-18T17:08:34.268Z,70.80
2023-04-18T17:11:02.383Z,70.80
2023-04-18T17:13:32.403Z,71.30
2023-04-18T17:15:59.952Z,71.40
2023-04-18T17:18:27.303Z,71.70
2023-04-18T17:20:54.602Z,71.40
2023-04-18T17:23:22.914Z,71.70
2023-04-18T17:25:50.508Z,71.50
2023-04-18T17:28:17.876Z,72.00
2023-04-18T17:30:45.664Z,72.00
2023-04-18T17:33:12.860Z,71.80
2023-04-18T17:35:41.556Z,72.20
2023-04-18T17:38:10.540Z,72.50
2023-04-18T17:40:39.402Z,72.40
2023-04-18T17:43:06.724Z,72.50
2023-04-18T17:45:33.967Z,72.60
2023-04-18T17:48:03.165Z,73.00
2023-04-18T17:50:30.578Z,73.20
2023-04-18T17:52:58.003Z,73.00
2023-04-18T17:55:26.559Z,73.20
2023-04-18T17:57:53.846Z,73.30
2023-04-18T18:00:21.248Z,73.30
2023-04-18T18:02:48.536Z,73.30
2023-04-18T18:05:16.660Z,73.20
2023-04-18T18:07:47.460Z,73.30
2023-04-18T18:10:22.936Z,73.60
2023-04-18T18:12:50.479Z,73.40
2023-04-18T18:15:18.206Z,73.40
2023-04-18T18:17:47.456Z,73.40
2023-04-18T18:20:14.843Z,73.50
2023-04-18T18:22:42.733Z,73.10
2023-04-18T18:25:10.615Z,73.00
2023-04-18T18:27:37.920Z,72.80
2023-04-18T18:30:06.019Z,72.90
2023-04-18T18:32:35.339Z,72.30
2023-04-18T18:35:02.650Z,71.20
2023-04-18T18:37:29.973Z,69.70
2023-04-18T18:39:57.409Z,68.70
2023-04-18T18:42:24.886Z,68.60
2023-04-18T18:44:52.269Z,67.90
2023-04-18T18:47:19.797Z,67.80
2023-04-18T18:49:48.691Z,67.40
2023-04-18T18:52:16.028Z,66.70
2023-04-18T18:54:43.275Z,65.50
2023-04-18T18:57:10.564Z,65.10
2023-04-18T18:59:38.083Z,64.50
2023-04-18T19:02:05.991Z,64.00
2023-04-18T19:04:34.044Z,63.40
2023-04-18T19:07:01.373Z,63.20
2023-04-18T19:09:28.745Z,62.70
2023-04-18T19:11:56.853Z,62.60
2023-04-18T19:14:24.149Z,63.20
2023-04-18T19:16:51.467Z,62.30
2023-04-18T19:19:18.708Z,62.60
2023-04-18T19:21:46.172Z,62.70
2023-04-18T19:24:13.572Z,62.90
2023-04-18T19:26:41.022Z,63.30
2023-04-18T19:29:09.519Z,63.40
2023-04-18T19:31:36.820Z,63.20
2023-04-18T19:34:04.148Z,62.90
2023-04-18T19:36:32.076Z,62.80
2023-04-18T19:38:59.396Z,63.40
2023-04-18T19:41:26.603Z,63.50
2023-04-18T19:43:53.869Z,62.90
2023-04-18T19:46:21.076Z,63.20
2023-04-18T19:48:48.361Z,63.50
2023-04-18T19:51:15.565Z,63.60
2023-04-18T19:53:42.819Z,63.60
2023-04-18T19:56:11.217Z,64.00
2023-04-18T19:58:44.738Z,63.90
2023-04-18T20:01:19.702Z,64.10
2023-04-18T20:03:47.913Z,63.70
2023-04-18T20:06:16.847Z,63.60
2023-04-18T20:08:47.234Z,64.00
2023-04-18T20:11:14.442Z,63.50
2023-04-18T20:13:41.741Z,63.00
2023-04-18T20:16:09.281Z,63.20
2023-04-18T20:18:39.545Z,63.70
2023-04-18T20:21:08.269Z,63.80
2023-04-18T20:23:36.484Z,63.30
2023-04-18T20:26:04.245Z,63.60
2023-04-18T20:28:32.131Z,63.60
2023-04-18T20:30:59.513Z,62.10
2023-04-18T20:33:27.895Z,62.70
2023-04-18T20:35:55.216Z,63.20
2023-04-18T20:38:25.938Z,63.60
2023-04-18T20:40:54.159Z,64.20
2023-04-18T20:43:21.665Z,63.90
2023-04-18T20:45:51.437Z,64.00
2023-04-18T20:48:18.983Z,64.70
2023-04-18T20:50:51.132Z,64.90
2023-04-18T20:53:22.483Z,65.00
2023-04-18T20:55:49.890Z,65.40
2023-04-18T20:58:17.169Z,65.70
2023-04-18T21:00:44.883Z,65.60
2023-04-18T21:03:16.362Z,64.90
2023-04-18T21:05:44.872Z,63.90
2023-04-18T21:08:12.237Z,64.10
2023-04-18T21:10:39.799Z,63.00
2023-04-18T21:13:07.312Z,63.30
2023-04-18T21:15:35.749Z,64.00
2023-04-18T21:18:03.081Z,65.10
2023-04-18T21:20:30.452Z,65.40
2023-04-18T21:25:25.361Z,65.80
2023-04-18T21:27:52.677Z,66.60
2023-04-18T21:30:21.652Z,65.70
2023-04-18T21:32:51.394Z,65.80
2023-04-18T21:35:20.278Z,65.50
2023-04-18T21:37:48.097Z,66.20
2023-04-18T21:40:15.905Z,66.00
2023-04-18T21:42:44.522Z,65.60
2023-04-18T21:45:11.969Z,65.80
2023-04-18T21:47:39.503Z,65.70
2023-04-18T21:50:07.490Z,65.00
2023-04-18T21:52:34.819Z,65.30
2023-04-18T21:55:02.139Z,65.40
2023-04-18T21:57:29.505Z,65.30
2023-04-18T21:59:59.735Z,65.00
2023-04-18T22:02:27.470Z,64.20
2023-04-18T22:04:54.747Z,64.40
2023-04-18T22:07:24.072Z,64.40
2023-04-18T22:09:51.402Z,64.00
2023-04-18T22:12:18.619Z,64.10
2023-04-18T22:14:48.304Z,64.20
2023-04-18T22:17:15.639Z,63.90
2023-04-18T22:19:44.448Z,63.80
2023-04-18T22:22:11.727Z,63.80
2023-04-18T22:24:39.017Z,63.30
2023-04-18T22:27:06.410Z,63.90
2023-04-18T22:29:34.166Z,63.90
2023-04-18T22:32:01.405Z,63.70
2023-04-18T22:34:28.647Z,64.30
2023-04-18T22:36:55.887Z,64.30
2023-04-18T22:39:25.714Z,64.30
2023-04-18T22:41:52.909Z,64.50
2023-04-18T22:44:20.311Z,64.60
2023-04-18T22:46:48.189Z,65.10
2023-04-18T22:49:15.569Z,64.50
2023-04-18T22:51:43.881Z,65.80
2023-04-18T22:54:11.170Z,65.40
2023-04-18T22:56:38.408Z,65.80
2023-04-18T22:59:05.759Z,65.60
2023-04-18T23:01:33.122Z,66.20
2023-04-18T23:04:00.571Z,66.40
2023-04-18T23:06:28.277Z,66.40
2023-04-18T23:08:55.699Z,66.80
2023-04-18T23:11:23.029Z,66.70
2023-04-18T23:13:50.350Z,66.20
2023-04-18T23:16:17.628Z,65.60
2023-04-18T23:18:44.879Z,63.00
2023-04-18T23:21:12.382Z,62.60
2023-04-18T23:23:39.628Z,62.20
2023-04-18T23:26:16.178Z,59.50
2023-04-18T23:28:43.525Z,59.10
2023-04-18T23:31:10.812Z,57.10
2023-04-18T23:33:38.049Z,56.70
2023-04-18T23:36:06.482Z,57.10
2023-04-18T23:38:33.717Z,57.80
2023-04-18T23:41:00.908Z,58.50
2023-04-18T23:43:28.108Z,58.10
2023-04-18T23:45:55.386Z,58.30
2023-04-18T23:48:22.755Z,57.80
2023-04-18T23:50:52.416Z,58.10
2023-04-18T23:53:21.011Z,58.00
2023-04-18T23:55:50.584Z,58.60
2023-04-18T23:58:18.164Z,58.20
